Flight Number: EUR2439 Duration: 6:00
Departure: Dubai Int'l (OMDB) at 08:00 Distance: 2463 Nm
Arrival: Munich Int'l (EDDM) at 14:00 Equipment: B777

Weather Information
Dubai International Airport, United Arab Emirates (OMDB) 25-15N 055-20E 5M Feb 24, 2018 - 01:00 AM EST / 2018.02.24 0600 UTC
Wind: from the SSE (160 degrees) at 10 MPH (9 KT) (direction variable):0
Visibility: greater than 7 mile(s):0 Temperature: 84 F (29 C) Dew Point: 53 F (12 C) Relative Humidity: 34% Pressure (altimeter): 29.88 in. Hg (1012 hPa)
ob: OMDB 240600Z 16009KT 130V190 CAVOK 29/12 Q1012 NOSIG cycle: 6
Sunrise: 02:48 Sunset: 14:15 (UTC)

Munchen, Germany (EDDM) 48-21N 011-47E Feb 24, 2018 - 12:50 AM EST / 2018.02.24 0550 UTC
Wind: from the ENE (070 degrees) at 12 MPH (10 KT):0
Visibility: greater than 7 mile(s):0
Sky conditions: partly cloudy Temperature: 23 F (-5 C)
Windchill: 12 F (-11 C):1 Dew Point: 17 F (-8 C) Relative Humidity: 79% Pressure (altimeter): 30.03 in. Hg (1017 hPa)
ob: EDDM 240550Z 07010KT 9999 SCT018 M05/M08 Q1017 NOSIG cycle: 6
Sunrise: 06:06 Sunset: 16:45 (UTC)

TAF:2018/02/24 06:27 TAF EDDM 240500Z 2406/2512 07012KT 9999 SCT020 BECMG 2407/2409 07015G25KT BECMG 2418/2420 07012KT

Previous Pireps for this route
Date Aircraft Flight time Fuel used Landing rate On time
2012-08-14A3405.35703870Yes
2012-11-02A34006.44112308-462No
2013-01-23A3405.3067954.70Yes
2013-01-29A3405.3063527.80Yes
2015-07-02B7776.231057580Charter
2016-02-29B77706.261211060Yes
2016-03-13B7776,30111918-312No
2016-10-07B77706.08100062-207Yes
2016-10-16B77706.07120485-347No
2016-11-01B77706.09130278-469Yes
(pireps marked green are flown by you)

Route map